createdAt,value
2019-03-05T00:01:08.230Z,65.30
2019-03-05T00:02:12.712Z,65.30
2019-03-05T00:03:17.328Z,65.30
2019-03-05T00:04:22.061Z,65.30
2019-03-05T00:05:27.013Z,65.30
2019-03-05T00:06:31.672Z,65.30
2019-03-05T00:07:36.143Z,65.30
2019-03-05T00:08:40.621Z,65.20
2019-03-05T00:09:45.092Z,65.10
2019-03-05T00:10:49.555Z,65.00
2019-03-05T00:11:54.101Z,65.10
2019-03-05T00:12:58.646Z,65.00
2019-03-05T00:14:03.434Z,64.90
2019-03-05T00:15:12.797Z,64.90
2019-03-05T00:16:17.247Z,64.90
2019-03-05T00:17:21.807Z,64.90
2019-03-05T00:18:26.263Z,64.90
2019-03-05T00:19:30.731Z,64.90
2019-03-05T00:20:35.185Z,64.90
2019-03-05T00:21:39.650Z,64.90
2019-03-05T00:22:44.210Z,64.90
2019-03-05T00:23:50.413Z,65.40
2019-03-05T00:25:00.358Z,65.00
2019-03-05T00:26:04.845Z,64.90
2019-03-05T00:27:09.659Z,65.10
2019-03-05T00:28:22.939Z,65.00
2019-03-05T00:29:33.012Z,65.20
2019-03-05T00:30:49.619Z,65.10
2019-03-05T00:31:54.078Z,65.20
2019-03-05T00:33:01.985Z,65.10
2019-03-05T00:34:18.293Z,65.30
2019-03-05T00:35:25.843Z,65.30
2019-03-05T00:36:39.668Z,65.20
2019-03-05T00:37:47.686Z,65.20
2019-03-05T00:39:14.684Z,65.60
2019-03-05T00:40:33.449Z,65.50
2019-03-05T00:42:02.269Z,65.80
2019-03-05T00:43:12.768Z,65.70
2019-03-05T00:44:34.734Z,65.50
2019-03-05T00:45:50.849Z,65.50
2019-03-05T00:47:06.976Z,65.80
2019-03-05T00:48:40.563Z,66.10
2019-03-05T00:50:05.323Z,66.60
2019-03-05T00:51:28.199Z,65.90
2019-03-05T00:52:35.842Z,66.10
2019-03-05T00:54:02.807Z,66.00
2019-03-05T00:55:25.472Z,66.30
2019-03-05T00:56:33.099Z,66.40
2019-03-05T00:57:46.519Z,66.60
2019-03-05T00:58:59.618Z,67.00
2019-03-05T01:00:07.651Z,66.90
2019-03-05T01:01:24.151Z,66.70
2019-03-05T01:02:46.648Z,67.50
2019-03-05T01:04:18.270Z,67.00
2019-03-05T01:05:35.047Z,66.80
2019-03-05T01:06:39.592Z,67.10
2019-03-05T01:07:44.048Z,66.90
2019-03-05T01:08:48.545Z,67.00
2019-03-05T01:09:53.205Z,67.20
2019-03-05T01:10:58.012Z,67.20
2019-03-05T01:12:02.633Z,67.40
2019-03-05T01:13:07.237Z,67.20
2019-03-05T01:14:12.011Z,67.20
2019-03-05T01:15:16.627Z,67.30
2019-03-05T01:16:23.062Z,67.20
2019-03-05T01:17:27.637Z,67.20
2019-03-05T01:18:32.471Z,67.50
2019-03-05T01:19:36.966Z,67.00
2019-03-05T01:20:41.598Z,67.00
2019-03-05T01:21:46.181Z,67.10
2019-03-05T01:22:50.717Z,67.00
2019-03-05T01:23:55.193Z,66.90
2019-03-05T01:24:59.674Z,67.80
2019-03-05T01:26:04.474Z,66.90
2019-03-05T01:27:09.189Z,66.90
2019-03-05T01:28:13.648Z,66.90
2019-03-05T01:29:18.207Z,66.90
2019-03-05T01:30:44.671Z,66.90
2019-03-05T01:32:09.372Z,66.60
2019-03-05T01:33:18.055Z,66.50
2019-03-05T01:34:30.211Z,66.50
2019-03-05T01:35:42.373Z,66.40
2019-03-05T01:36:57.278Z,66.30
2019-03-05T01:38:01.762Z,66.30
2019-03-05T01:39:13.271Z,66.40
2019-03-05T01:40:19.384Z,66.20
2019-03-05T01:41:23.909Z,66.50
2019-03-05T01:42:28.453Z,66.50
2019-03-05T01:43:32.939Z,66.40
2019-03-05T01:44:37.435Z,66.40
2019-03-05T01:45:42.081Z,66.30
2019-03-05T01:46:46.583Z,66.20
2019-03-05T01:47:51.087Z,66.20
2019-03-05T01:48:55.611Z,66.10
2019-03-05T01:50:00.123Z,66.30
2019-03-05T01:51:04.729Z,66.30
2019-03-05T01:52:09.212Z,66.40
2019-03-05T01:53:13.748Z,66.20
2019-03-05T01:54:18.206Z,66.20
2019-03-05T01:55:22.713Z,66.20
2019-03-05T01:56:27.192Z,66.10
2019-03-05T01:57:31.657Z,66.90
2019-03-05T01:58:36.363Z,66.00
2019-03-05T01:59:40.845Z,66.20
2019-03-05T02:00:45.439Z,66.20
2019-03-05T02:01:49.905Z,65.90
2019-03-05T02:02:54.360Z,65.90
2019-03-05T02:03:58.813Z,66.00
2019-03-05T02:05:04.322Z,65.90
2019-03-05T02:06:08.815Z,65.80
2019-03-05T02:07:13.322Z,65.90
2019-03-05T02:08:17.844Z,65.90
2019-03-05T02:09:22.471Z,65.90
2019-03-05T02:10:27.223Z,65.90
2019-03-05T02:11:31.813Z,66.10
2019-03-05T02:12:36.274Z,66.00
2019-03-05T02:13:40.743Z,66.00
2019-03-05T02:14:45.958Z,65.90
2019-03-05T02:15:50.431Z,66.20
2019-03-05T02:16:55.006Z,66.20
2019-03-05T02:17:59.536Z,66.00
2019-03-05T02:19:38.144Z,66.00
2019-03-05T02:20:42.676Z,66.20
2019-03-05T02:21:47.149Z,66.20
2019-03-05T02:23:03.831Z,66.30
2019-03-05T02:24:17.455Z,66.40
2019-03-05T02:25:49.168Z,66.30
2019-03-05T02:27:19.587Z,66.20
2019-03-05T02:28:27.215Z,66.40
2019-03-05T02:29:48.702Z,66.30
2019-03-05T02:31:04.867Z,66.30
2019-03-05T02:32:27.367Z,66.50
2019-03-05T02:33:43.672Z,66.40
2019-03-05T02:35:03.324Z,66.20
2019-03-05T02:36:36.687Z,66.80
2019-03-05T02:37:44.227Z,66.50
2019-03-05T02:39:09.742Z,66.60
2019-03-05T02:40:22.733Z,66.80
2019-03-05T02:41:32.974Z,66.80
2019-03-05T02:43:00.229Z,66.70
2019-03-05T02:44:13.428Z,66.80
2019-03-05T02:45:23.812Z,66.90
2019-03-05T02:46:43.619Z,66.80
2019-03-05T02:47:51.232Z,67.00
2019-03-05T02:49:10.865Z,67.10
2019-03-05T02:50:38.217Z,67.00
2019-03-05T02:51:45.814Z,67.20
2019-03-05T02:53:05.105Z,67.00
2019-03-05T02:54:38.539Z,66.90
2019-03-05T02:55:51.795Z,66.70
2019-03-05T02:57:07.764Z,66.80
2019-03-05T02:58:11.318Z,66.80
2019-03-05T02:59:15.011Z,66.80
2019-03-05T03:00:21.411Z,67.00
2019-03-05T03:01:27.513Z,66.90
2019-03-05T03:02:48.984Z,66.90
2019-03-05T03:03:55.168Z,66.80
2019-03-05T03:05:04.196Z,66.80
2019-03-05T03:06:13.199Z,67.00
2019-03-05T03:07:17.681Z,67.00
2019-03-05T03:08:22.210Z,67.00
2019-03-05T03:09:32.631Z,66.90
2019-03-05T03:10:37.193Z,67.50
2019-03-05T03:11:41.852Z,67.10
2019-03-05T03:12:46.570Z,67.00
2019-03-05T03:13:51.117Z,66.90
2019-03-05T03:14:55.584Z,66.90
2019-03-05T03:16:00.055Z,66.90
2019-03-05T03:17:04.542Z,66.80
2019-03-05T03:18:10.536Z,66.60
2019-03-05T03:19:15.168Z,66.60
2019-03-05T03:20:19.873Z,66.60
2019-03-05T03:21:24.341Z,66.60
2019-03-05T03:22:28.824Z,66.60
2019-03-05T03:23:33.660Z,66.70
2019-03-05T03:24:38.191Z,66.60
2019-03-05T03:25:42.655Z,66.60
2019-03-05T03:26:47.109Z,66.60
2019-03-05T03:27:51.721Z,66.60
2019-03-05T03:28:56.199Z,66.60
2019-03-05T03:30:00.929Z,66.50
2019-03-05T03:31:05.470Z,66.60
2019-03-05T03:32:09.923Z,66.50
2019-03-05T03:33:14.530Z,66.40
2019-03-05T03:34:19.070Z,66.40
2019-03-05T03:35:25.511Z,66.30
2019-03-05T03:36:30.414Z,66.30
2019-03-05T03:37:36.724Z,66.30
2019-03-05T03:38:41.434Z,66.20
2019-03-05T03:39:45.963Z,66.00
2019-03-05T03:40:50.464Z,66.10
2019-03-05T03:41:55.097Z,65.90
2019-03-05T03:42:59.635Z,65.90
2019-03-05T03:44:04.219Z,65.80
2019-03-05T03:45:11.813Z,65.90
2019-03-05T03:46:16.299Z,65.80
2019-03-05T03:47:20.922Z,65.80
2019-03-05T03:48:25.382Z,65.90
2019-03-05T03:49:29.864Z,65.80
2019-03-05T03:50:34.353Z,65.80
2019-03-05T03:51:38.848Z,65.80
2019-03-05T03:52:43.367Z,65.80
2019-03-05T03:53:47.906Z,65.90
2019-03-05T03:54:52.498Z,65.90
2019-03-05T03:55:57.222Z,66.00
2019-03-05T03:57:01.779Z,66.10
2019-03-05T03:58:06.267Z,66.10
2019-03-05T03:59:10.803Z,66.30
2019-03-05T04:00:22.451Z,66.10
2019-03-05T04:01:26.995Z,66.20
2019-03-05T04:02:31.519Z,66.00
2019-03-05T04:03:36.217Z,66.10
2019-03-05T04:04:41.015Z,66.10
2019-03-05T04:05:45.767Z,66.00
2019-03-05T04:06:50.583Z,65.90
2019-03-05T04:07:55.121Z,66.10
2019-03-05T04:08:59.587Z,66.10
2019-03-05T04:10:07.049Z,66.10
2019-03-05T04:11:11.604Z,66.00
2019-03-05T04:12:16.102Z,65.90
2019-03-05T04:13:20.642Z,66.00
2019-03-05T04:14:25.179Z,65.80
2019-03-05T04:15:29.648Z,65.90
2019-03-05T04:16:34.279Z,65.90
2019-03-05T04:17:38.729Z,66.50
2019-03-05T04:18:44.159Z,66.00
2019-03-05T04:19:48.640Z,65.70
2019-03-05T04:20:53.269Z,65.70
2019-03-05T04:21:57.769Z,65.80
2019-03-05T04:23:04.324Z,65.50
2019-03-05T04:24:08.793Z,65.60
2019-03-05T04:25:13.255Z,65.60
2019-03-05T04:26:18.014Z,65.50
2019-03-05T04:27:22.485Z,65.40
2019-03-05T04:28:26.968Z,65.40
2019-03-05T04:29:31.448Z,65.30
2019-03-05T04:30:35.913Z,65.30
2019-03-05T04:31:40.358Z,65.20
2019-03-05T04:32:44.903Z,65.10
2019-03-05T04:33:49.404Z,65.00
2019-03-05T04:34:53.866Z,65.00
2019-03-05T04:35:58.331Z,65.00
2019-03-05T04:37:02.807Z,65.00
2019-03-05T04:38:07.352Z,64.90
2019-03-05T04:39:12.374Z,64.90
2019-03-05T04:40:16.928Z,64.80
2019-03-05T04:41:21.408Z,64.70
2019-03-05T04:42:25.879Z,64.70
2019-03-05T04:43:30.398Z,64.70
2019-03-05T04:44:36.574Z,64.70
2019-03-05T04:45:42.675Z,64.60
2019-03-05T04:46:48.785Z,64.50
2019-03-05T04:47:53.266Z,64.60
2019-03-05T04:49:02.135Z,64.50
2019-03-05T04:50:09.097Z,64.50
2019-03-05T04:51:15.207Z,63.80
2019-03-05T04:52:21.243Z,64.50
2019-03-05T04:53:25.722Z,64.40
2019-03-05T04:54:30.225Z,64.50
2019-03-05T04:55:34.683Z,64.50
2019-03-05T04:56:39.167Z,64.30
2019-03-05T04:57:43.628Z,64.50
2019-03-05T04:58:48.083Z,64.50
2019-03-05T04:59:52.548Z,64.40
2019-03-05T05:00:57.008Z,64.60
2019-03-05T05:02:01.514Z,64.50
2019-03-05T05:03:06.039Z,64.60
2019-03-05T05:04:10.594Z,64.40
2019-03-05T05:05:15.213Z,64.40
2019-03-05T05:06:19.680Z,64.40
2019-03-05T05:07:24.159Z,64.30
2019-03-05T05:08:28.636Z,64.40
2019-03-05T05:09:33.167Z,64.40
2019-03-05T05:10:37.630Z,64.40
2019-03-05T05:11:42.114Z,64.30
2019-03-05T05:12:46.588Z,64.40
2019-03-05T05:13:51.107Z,64.30
2019-03-05T05:14:55.577Z,64.30
2019-03-05T05:16:00.049Z,64.30
2019-03-05T05:17:04.537Z,64.40
2019-03-05T05:18:09.069Z,64.20
2019-03-05T05:19:13.553Z,64.30
2019-03-05T05:20:18.018Z,64.20
2019-03-05T05:21:22.500Z,64.20
2019-03-05T05:22:26.950Z,64.10
2019-03-05T05:23:31.436Z,64.10
2019-03-05T05:24:35.968Z,64.10
2019-03-05T05:25:40.545Z,64.10
2019-03-05T05:26:45.034Z,64.10
2019-03-05T05:27:49.528Z,64.10
2019-03-05T05:28:53.981Z,64.00
2019-03-05T05:29:58.453Z,64.10
2019-03-05T05:31:02.924Z,64.00
2019-03-05T05:32:07.470Z,64.00
2019-03-05T05:33:11.955Z,64.00
2019-03-05T05:34:16.423Z,64.00
2019-03-05T05:35:20.944Z,63.90
2019-03-05T05:36:25.446Z,63.90
2019-03-05T05:37:29.986Z,63.90
2019-03-05T05:38:34.458Z,63.90
2019-03-05T05:40:07.824Z,63.90
2019-03-05T05:41:12.302Z,64.70
2019-03-05T05:42:16.819Z,63.90
2019-03-05T05:43:24.147Z,63.90
2019-03-05T05:44:28.603Z,63.90
2019-03-05T05:45:48.070Z,63.90
2019-03-05T05:46:52.564Z,63.90
2019-03-05T05:47:57.021Z,63.80
2019-03-05T05:49:01.498Z,64.00
2019-03-05T05:50:06.414Z,63.90
2019-03-05T05:51:10.918Z,63.90
2019-03-05T05:52:15.403Z,64.00
2019-03-05T05:53:19.891Z,64.00
2019-03-05T05:54:24.363Z,64.10
2019-03-05T05:55:28.834Z,64.10
2019-03-05T05:56:34.576Z,64.10
2019-03-05T05:57:39.128Z,64.10
2019-03-05T05:58:43.806Z,64.10
2019-03-05T05:59:48.264Z,64.10
2019-03-05T06:00:54.480Z,64.20
2019-03-05T06:01:59.009Z,64.10
2019-03-05T06:03:03.472Z,64.10
2019-03-05T06:04:08.002Z,64.10
2019-03-05T06:05:12.921Z,64.00
2019-03-05T06:06:17.475Z,64.00
2019-03-05T06:07:21.939Z,63.50
2019-03-05T06:08:26.410Z,64.20
2019-03-05T06:09:30.933Z,64.10
2019-03-05T06:10:35.486Z,64.10
2019-03-05T06:11:40.010Z,64.20
2019-03-05T06:12:44.621Z,64.20
2019-03-05T06:13:49.137Z,64.20
2019-03-05T06:14:53.718Z,64.30
2019-03-05T06:15:58.205Z,64.40
2019-03-05T06:17:02.668Z,64.30
2019-03-05T06:18:07.129Z,64.30
2019-03-05T06:19:11.599Z,63.80
2019-03-05T06:20:17.124Z,64.30
2019-03-05T06:21:21.608Z,64.40
2019-03-05T06:22:29.244Z,64.30
2019-03-05T06:23:33.724Z,64.30
2019-03-05T06:24:38.313Z,64.40
2019-03-05T06:25:42.782Z,64.30
2019-03-05T06:26:47.408Z,64.30
2019-03-05T06:27:51.972Z,64.30
2019-03-05T06:28:56.438Z,65.00
2019-03-05T06:30:00.913Z,64.10
2019-03-05T06:31:05.447Z,64.10
2019-03-05T06:32:10.032Z,64.10
2019-03-05T06:33:14.517Z,64.10
2019-03-05T06:34:19.083Z,64.10
2019-03-05T06:35:23.571Z,64.10
2019-03-05T06:36:31.122Z,64.10
2019-03-05T06:37:35.672Z,64.10
2019-03-05T06:38:40.148Z,64.10
2019-03-05T06:39:44.601Z,64.00
2019-03-05T06:40:49.143Z,64.00
2019-03-05T06:41:53.826Z,64.00
2019-03-05T06:42:59.915Z,63.90
2019-03-05T06:44:06.131Z,64.00
2019-03-05T06:45:13.439Z,63.80
2019-03-05T06:46:17.965Z,63.80
2019-03-05T06:47:23.792Z,63.90
2019-03-05T06:48:28.311Z,63.90
2019-03-05T06:49:32.762Z,63.90
2019-03-05T06:50:37.241Z,63.90
2019-03-05T06:51:41.719Z,63.90
2019-03-05T06:52:46.334Z,63.70
2019-03-05T06:53:50.808Z,63.70
2019-03-05T06:54:55.273Z,63.60
2019-03-05T06:55:59.730Z,63.60
2019-03-05T06:57:04.271Z,63.50
2019-03-05T06:58:11.707Z,63.40
2019-03-05T06:59:16.474Z,63.50
2019-03-05T07:00:27.338Z,63.50
2019-03-05T07:01:31.827Z,63.40
2019-03-05T07:02:36.528Z,63.40
2019-03-05T07:03:41.008Z,63.50
2019-03-05T07:04:47.114Z,63.40
2019-03-05T07:06:28.543Z,63.50
2019-03-05T07:07:33.072Z,63.50
2019-03-05T07:08:40.085Z,63.40
2019-03-05T07:09:50.633Z,63.30
2019-03-05T07:11:10.343Z,63.40
2019-03-05T07:12:23.677Z,63.40
2019-03-05T07:13:28.167Z,63.60
2019-03-05T07:14:47.565Z,63.50
2019-03-05T07:15:57.824Z,63.60
2019-03-05T07:17:05.365Z,63.50
2019-03-05T07:18:15.859Z,63.30
2019-03-05T07:19:22.055Z,63.30
2019-03-05T07:20:48.576Z,63.20
2019-03-05T07:22:08.186Z,63.20
2019-03-05T07:23:30.787Z,63.60
2019-03-05T07:24:46.334Z,62.90
2019-03-05T07:25:50.809Z,62.90
2019-03-05T07:26:55.289Z,62.70
2019-03-05T07:27:59.779Z,62.70
2019-03-05T07:29:04.417Z,62.70
2019-03-05T07:30:14.684Z,62.70
2019-03-05T07:31:19.161Z,62.70
2019-03-05T07:32:23.729Z,62.60
2019-03-05T07:33:28.241Z,62.60
2019-03-05T07:34:34.391Z,62.90
2019-03-05T07:35:38.854Z,62.60
2019-03-05T07:36:45.302Z,62.40
2019-03-05T07:37:49.965Z,63.20
2019-03-05T07:38:54.430Z,62.40
2019-03-05T07:39:58.916Z,62.50
2019-03-05T07:41:03.409Z,62.50
2019-03-05T07:42:08.023Z,62.30
2019-03-05T07:43:12.504Z,62.30
2019-03-05T07:44:16.961Z,62.40
2019-03-05T07:45:21.599Z,62.40
2019-03-05T07:46:27.063Z,62.30
2019-03-05T07:47:31.581Z,62.30
2019-03-05T07:48:36.084Z,62.40
2019-03-05T07:49:44.143Z,62.30
2019-03-05T07:50:47.111Z,62.20
2019-03-05T07:51:51.680Z,62.20
2019-03-05T07:52:56.168Z,62.30
2019-03-05T07:54:00.651Z,62.30
2019-03-05T07:55:13.777Z,62.20
2019-03-05T07:56:16.887Z,62.20
2019-03-05T07:57:21.398Z,62.20
2019-03-05T07:58:25.903Z,62.10
2019-03-05T07:59:30.445Z,62.10
2019-03-05T08:00:34.976Z,61.90
2019-03-05T08:01:39.713Z,61.90
2019-03-05T08:02:44.203Z,61.90
2019-03-05T08:03:49.515Z,62.00
2019-03-05T08:04:54.015Z,61.80
2019-03-05T08:05:58.556Z,61.80
2019-03-05T08:07:03.026Z,61.60
2019-03-05T08:08:36.575Z,61.50
2019-03-05T08:09:41.093Z,61.40
2019-03-05T08:10:45.559Z,61.30
2019-03-05T08:11:50.055Z,61.50
2019-03-05T08:13:15.564Z,61.60
2019-03-05T08:14:25.872Z,61.50
2019-03-05T08:16:02.746Z,61.10
2019-03-05T08:17:05.069Z,61.30
2019-03-05T08:18:09.614Z,61.20
2019-03-05T08:19:14.192Z,61.20
2019-03-05T08:20:18.654Z,61.40
2019-03-05T08:21:23.127Z,61.40
2019-03-05T08:22:27.592Z,61.30
2019-03-05T08:23:32.077Z,61.40
2019-03-05T08:24:36.698Z,61.40
2019-03-05T08:25:41.176Z,61.50
2019-03-05T08:26:46.117Z,61.50
2019-03-05T08:27:50.835Z,61.20
2019-03-05T08:28:55.462Z,60.90
2019-03-05T08:30:00.290Z,60.40
2019-03-05T08:31:05.172Z,60.70
2019-03-05T08:32:09.783Z,60.70
2019-03-05T08:33:14.737Z,60.80
2019-03-05T08:34:19.254Z,60.50
2019-03-05T08:35:23.811Z,60.20
2019-03-05T08:36:28.374Z,60.30
2019-03-05T08:37:32.834Z,60.30
2019-03-05T08:38:37.783Z,60.50
2019-03-05T08:39:42.307Z,60.40
2019-03-05T08:40:46.855Z,60.40
2019-03-05T08:41:52.340Z,60.40
2019-03-05T08:42:56.818Z,61.30
2019-03-05T08:44:01.435Z,61.00
2019-03-05T08:45:09.065Z,60.00
2019-03-05T08:46:13.649Z,59.90
2019-03-05T08:47:19.750Z,59.90
2019-03-05T08:48:25.949Z,59.40
2019-03-05T08:49:30.584Z,60.00
2019-03-05T08:50:35.456Z,59.50
2019-03-05T08:51:39.982Z,59.20
2019-03-05T08:52:44.540Z,59.40
2019-03-05T08:53:50.024Z,59.80
2019-03-05T08:54:54.691Z,60.10
2019-03-05T08:55:59.264Z,59.50
2019-03-05T08:57:03.813Z,58.50
2019-03-05T08:58:08.411Z,57.30
2019-03-05T08:59:12.883Z,57.40
2019-03-05T09:00:21.166Z,57.20
2019-03-05T09:01:25.750Z,56.80
2019-03-05T09:02:30.197Z,55.50
2019-03-05T09:03:35.018Z,54.00
2019-03-05T09:04:39.483Z,53.90
2019-03-05T09:05:44.036Z,53.80
2019-03-05T09:06:49.399Z,53.30
2019-03-05T09:07:54.051Z,53.70
2019-03-05T09:08:58.518Z,54.30
2019-03-05T09:10:04.350Z,54.00
2019-03-05T09:11:08.882Z,53.70
2019-03-05T09:12:13.484Z,53.30
2019-03-05T09:13:18.109Z,53.30
2019-03-05T09:14:22.615Z,52.50
2019-03-05T09:15:27.080Z,52.50
2019-03-05T09:16:31.547Z,53.10
2019-03-05T09:17:36.117Z,53.30
2019-03-05T09:18:40.718Z,52.50
2019-03-05T09:19:45.218Z,52.50
2019-03-05T09:20:49.702Z,53.10
2019-03-05T09:21:54.175Z,51.70
2019-03-05T09:22:58.724Z,51.30
2019-03-05T09:24:03.308Z,51.60
2019-03-05T09:25:10.998Z,50.90
2019-03-05T09:26:15.504Z,50.60
2019-03-05T09:27:20.005Z,51.50
2019-03-05T09:28:24.638Z,51.70
2019-03-05T09:29:29.178Z,51.20
2019-03-05T09:30:33.941Z,51.10
2019-03-05T09:31:38.630Z,51.80
2019-03-05T09:32:43.300Z,51.40
2019-03-05T09:33:48.041Z,51.00
2019-03-05T09:34:52.571Z,50.60
2019-03-05T09:35:57.049Z,51.10
2019-03-05T09:37:01.582Z,51.00
2019-03-05T09:38:06.217Z,51.80
2019-03-05T09:39:12.315Z,51.70
2019-03-05T09:40:19.931Z,52.30
2019-03-05T09:41:24.572Z,52.70
2019-03-05T09:42:39.353Z,52.60
2019-03-05T09:43:35.452Z,52.80
2019-03-05T09:44:40.093Z,53.10
2019-03-05T09:45:44.560Z,53.30
2019-03-05T09:46:49.133Z,52.50
2019-03-05T09:47:55.609Z,52.40
2019-03-05T09:49:00.429Z,51.40
2019-03-05T09:50:08.088Z,51.00
2019-03-05T09:51:12.731Z,51.70
2019-03-05T09:52:17.728Z,51.90
2019-03-05T09:53:22.266Z,51.60
2019-03-05T09:54:26.862Z,51.20
2019-03-05T09:55:34.475Z,50.80
2019-03-05T09:56:39.816Z,50.90
2019-03-05T09:57:45.283Z,50.60
2019-03-05T09:58:49.865Z,49.90
2019-03-05T09:59:54.430Z,50.00
2019-03-05T10:00:58.909Z,50.40
2019-03-05T10:02:03.370Z,50.60
2019-03-05T10:03:08.248Z,50.10
2019-03-05T10:04:12.771Z,49.20
2019-03-05T10:05:18.585Z,48.80
2019-03-05T10:06:23.227Z,48.80
2019-03-05T10:07:27.716Z,48.40
2019-03-05T10:08:32.926Z,47.20
2019-03-05T10:09:37.503Z,47.40
2019-03-05T10:10:42.204Z,47.30
2019-03-05T10:11:46.807Z,45.50
2019-03-05T10:12:51.426Z,44.60
2019-03-05T10:13:55.966Z,44.70
2019-03-05T10:15:00.940Z,43.80
2019-03-05T10:16:06.040Z,42.40
2019-03-05T10:17:10.556Z,42.00
2019-03-05T10:18:15.119Z,42.10
2019-03-05T10:19:19.619Z,42.20
2019-03-05T10:20:28.975Z,41.40
2019-03-05T10:21:33.688Z,42.00
2019-03-05T10:22:38.481Z,42.00
2019-03-05T10:23:43.707Z,41.80
2019-03-05T10:24:48.193Z,41.30
2019-03-05T10:25:53.431Z,41.70
2019-03-05T10:26:58.154Z,43.10
2019-03-05T10:28:02.912Z,43.00
2019-03-05T10:29:07.536Z,43.50
2019-03-05T10:30:24.731Z,43.40
2019-03-05T10:31:24.010Z,43.60
2019-03-05T10:32:28.681Z,43.90
2019-03-05T10:33:33.329Z,44.30
2019-03-05T10:34:38.112Z,44.20
2019-03-05T10:35:42.885Z,44.40
2019-03-05T10:36:47.802Z,44.30
2019-03-05T10:37:54.018Z,44.50
2019-03-05T10:38:58.556Z,44.90
2019-03-05T10:40:03.829Z,45.10
2019-03-05T10:41:08.793Z,45.00
2019-03-05T10:42:13.442Z,45.30
2019-03-05T10:43:18.179Z,45.50
2019-03-05T10:44:22.790Z,45.40
2019-03-05T10:45:27.477Z,45.80
2019-03-05T10:46:32.070Z,45.70
2019-03-05T10:47:36.537Z,46.10
2019-03-05T10:48:41.091Z,46.60
2019-03-05T10:49:45.617Z,46.80
2019-03-05T10:50:50.386Z,46.80
2019-03-05T10:51:55.128Z,47.00
2019-03-05T10:52:59.903Z,47.20
2019-03-05T10:54:05.261Z,47.00
2019-03-05T10:55:11.585Z,47.00
2019-03-05T10:56:16.131Z,46.20
2019-03-05T10:57:20.726Z,46.90
2019-03-05T10:58:33.106Z,46.30
2019-03-05T10:59:31.497Z,45.30
2019-03-05T11:00:39.297Z,45.20
2019-03-05T11:01:44.625Z,44.60
2019-03-05T11:02:50.285Z,44.80
2019-03-05T11:03:54.773Z,44.10
2019-03-05T11:04:59.390Z,43.80
2019-03-05T11:06:05.763Z,44.00
2019-03-05T11:07:12.292Z,43.50
2019-03-05T11:08:22.268Z,42.80
2019-03-05T11:09:27.131Z,43.60
2019-03-05T11:10:32.034Z,43.90
2019-03-05T11:11:36.580Z,42.90
2019-03-05T11:12:41.979Z,40.50
2019-03-05T11:13:46.586Z,40.60
2019-03-05T11:14:51.176Z,41.10
2019-03-05T11:16:00.285Z,41.20
2019-03-05T11:17:04.895Z,41.30
2019-03-05T11:18:10.684Z,40.70
2019-03-05T11:19:15.241Z,41.20
2019-03-05T11:20:19.867Z,40.80
2019-03-05T11:21:24.463Z,40.70
2019-03-05T11:22:28.983Z,40.90
2019-03-05T11:23:35.565Z,41.50
2019-03-05T11:24:40.166Z,41.70
2019-03-05T11:25:44.746Z,40.40
2019-03-05T11:26:49.344Z,40.90
2019-03-05T11:27:53.815Z,39.20
2019-03-05T11:28:58.377Z,38.10
2019-03-05T11:30:02.876Z,37.50
2019-03-05T11:31:08.415Z,37.90
2019-03-05T11:32:12.882Z,38.70
2019-03-05T11:33:17.617Z,37.80
2019-03-05T11:34:22.213Z,38.20
2019-03-05T11:35:30.848Z,37.90
2019-03-05T11:36:35.484Z,37.80
2019-03-05T11:37:40.277Z,38.20
2019-03-05T11:38:44.944Z,38.20
2019-03-05T11:39:49.800Z,38.50
2019-03-05T11:40:54.665Z,38.40
2019-03-05T11:41:59.367Z,38.70
2019-03-05T11:43:09.299Z,38.70
2019-03-05T11:44:13.846Z,38.80
2019-03-05T11:45:21.808Z,39.70
2019-03-05T11:46:27.687Z,39.50
2019-03-05T11:47:32.296Z,39.70
2019-03-05T11:48:37.019Z,39.00
2019-03-05T11:49:41.491Z,39.30
2019-03-05T11:50:46.248Z,39.20
2019-03-05T11:51:50.807Z,39.30
2019-03-05T11:52:56.000Z,38.60
2019-03-05T11:54:00.474Z,39.30
2019-03-05T11:55:08.053Z,39.20
2019-03-05T11:56:12.543Z,39.70
2019-03-05T11:57:17.031Z,40.10
2019-03-05T11:58:21.527Z,40.50
2019-03-05T11:59:26.000Z,40.30
2019-03-05T12:00:49.216Z,40.10
2019-03-05T12:01:53.785Z,40.30
2019-03-05T12:02:58.466Z,40.40
2019-03-05T12:04:02.997Z,39.50
2019-03-05T12:05:12.794Z,39.50
2019-03-05T12:06:17.460Z,39.40
2019-03-05T12:07:21.947Z,39.50
2019-03-05T12:08:27.399Z,39.30
2019-03-05T12:09:32.404Z,39.70
2019-03-05T12:10:37.167Z,39.90
2019-03-05T12:11:41.699Z,39.50
2019-03-05T12:12:46.175Z,38.70
2019-03-05T12:13:50.751Z,38.90
2019-03-05T12:14:55.233Z,38.50
2019-03-05T12:16:00.002Z,37.60
2019-03-05T12:17:06.175Z,37.00
2019-03-05T12:18:14.246Z,37.00
2019-03-05T12:19:18.831Z,37.20
2019-03-05T12:20:23.360Z,37.30
2019-03-05T12:21:28.229Z,37.30
2019-03-05T12:22:33.274Z,37.70
2019-03-05T12:23:38.273Z,37.60
2019-03-05T12:24:42.835Z,38.00
2019-03-05T12:25:48.487Z,37.10
2019-03-05T12:26:53.091Z,37.20
2019-03-05T12:27:57.646Z,36.40
2019-03-05T12:29:02.784Z,36.50
2019-03-05T12:30:10.388Z,36.00
2019-03-05T12:31:16.396Z,36.00
2019-03-05T12:32:20.896Z,35.70
2019-03-05T12:33:25.747Z,36.20
2019-03-05T12:34:30.356Z,36.60
2019-03-05T12:35:35.566Z,36.00
2019-03-05T12:36:40.378Z,35.00
2019-03-05T12:37:44.883Z,36.10
2019-03-05T12:38:49.381Z,35.80
2019-03-05T12:39:53.873Z,36.70
2019-03-05T12:40:58.418Z,36.00
2019-03-05T12:42:03.957Z,36.90
2019-03-05T12:43:08.438Z,36.40
2019-03-05T12:44:13.015Z,36.40
2019-03-05T12:45:19.274Z,36.00
2019-03-05T12:46:24.124Z,36.60
2019-03-05T12:47:28.801Z,36.80
2019-03-05T12:48:39.868Z,37.10
2019-03-05T12:49:39.678Z,36.70
2019-03-05T12:50:45.578Z,37.40
2019-03-05T12:51:50.192Z,37.80
2019-03-05T12:52:55.977Z,37.90
2019-03-05T12:54:01.537Z,37.90
2019-03-05T12:55:09.075Z,37.90
2019-03-05T12:56:23.339Z,38.10
2019-03-05T12:57:19.873Z,38.20
2019-03-05T12:58:24.378Z,38.20
2019-03-05T12:59:28.965Z,38.40
2019-03-05T13:00:35.639Z,38.10
2019-03-05T13:01:40.173Z,38.40
2019-03-05T13:02:44.633Z,38.30
2019-03-05T13:03:49.124Z,38.10
2019-03-05T13:04:53.706Z,38.40
2019-03-05T13:05:58.275Z,38.20
2019-03-05T13:07:02.743Z,38.30
2019-03-05T13:08:07.380Z,38.00
2019-03-05T13:09:17.807Z,38.10
2019-03-05T13:10:34.923Z,38.10
2019-03-05T13:11:35.493Z,38.50
2019-03-05T13:12:40.285Z,38.50
2019-03-05T13:13:47.508Z,39.30
2019-03-05T13:14:51.102Z,38.60
2019-03-05T13:15:56.465Z,38.80
2019-03-05T13:17:01.968Z,38.90
2019-03-05T13:18:06.522Z,39.10
2019-03-05T13:19:11.057Z,39.20
2019-03-05T13:20:22.696Z,39.40
2019-03-05T13:21:26.598Z,39.50
2019-03-05T13:22:31.092Z,39.60
2019-03-05T13:23:35.584Z,39.80
2019-03-05T13:24:40.072Z,39.80
2019-03-05T13:25:44.561Z,39.90
2019-03-05T13:26:49.124Z,39.90
2019-03-05T13:27:57.544Z,40.10
2019-03-05T13:29:00.954Z,40.00
2019-03-05T13:30:11.246Z,40.10
2019-03-05T13:31:15.723Z,40.20
2019-03-05T13:32:20.781Z,40.40
2019-03-05T13:33:26.559Z,40.60
2019-03-05T13:34:31.074Z,40.60
2019-03-05T13:35:35.680Z,40.70
2019-03-05T13:36:40.271Z,40.80
2019-03-05T13:37:45.661Z,40.90
2019-03-05T13:38:50.167Z,41.00
2019-03-05T13:39:54.999Z,41.20
2019-03-05T13:41:00.789Z,41.20
2019-03-05T13:42:07.777Z,41.10
2019-03-05T13:43:11.655Z,41.60
2019-03-05T13:44:34.083Z,41.20
2019-03-05T13:45:43.909Z,41.10
2019-03-05T13:46:46.823Z,41.10
2019-03-05T13:48:23.612Z,41.10
2019-03-05T13:49:40.367Z,41.10
2019-03-05T13:51:01.039Z,41.00
2019-03-05T13:52:32.200Z,41.10
2019-03-05T13:53:46.739Z,41.10
2019-03-05T13:54:54.287Z,41.10
2019-03-05T13:56:21.616Z,41.20
2019-03-05T13:57:47.365Z,41.20
2019-03-05T13:59:15.137Z,41.30
2019-03-05T14:00:19.783Z,41.30
2019-03-05T14:01:24.331Z,40.90
2019-03-05T14:02:29.531Z,41.00
2019-03-05T14:03:37.141Z,41.20
2019-03-05T14:04:50.776Z,41.10
2019-03-05T14:06:13.381Z,41.10
2019-03-05T14:07:43.420Z,41.00
2019-03-05T14:09:14.150Z,41.10
2019-03-05T14:10:18.846Z,41.10
2019-03-05T14:11:23.767Z,41.20
2019-03-05T14:12:28.250Z,41.00
2019-03-05T14:13:32.844Z,41.60
2019-03-05T14:14:37.390Z,41.00
2019-03-05T14:15:42.968Z,41.00
2019-03-05T14:16:50.844Z,41.10
2019-03-05T14:17:55.401Z,41.10
2019-03-05T14:18:59.950Z,41.20
2019-03-05T14:20:07.760Z,41.20
2019-03-05T14:21:12.323Z,41.20